createdAt,value
2023-01-23T00:01:41.522Z,45.91
2023-01-23T00:04:11.440Z,45.97
2023-01-23T00:06:40.882Z,45.95
2023-01-23T00:09:09.426Z,46.08
2023-01-23T00:11:37.447Z,45.95
2023-01-23T00:14:05.910Z,46.07
2023-01-23T00:16:34.655Z,45.94
2023-01-23T00:19:04.387Z,46.20
2023-01-23T00:21:32.477Z,46.27
2023-01-23T00:24:02.201Z,46.38
2023-01-23T00:26:32.959Z,46.19
2023-01-23T00:29:01.037Z,46.49
2023-01-23T00:31:32.945Z,46.45
2023-01-23T00:34:05.667Z,46.45
2023-01-23T00:36:36.786Z,46.46
2023-01-23T00:39:07.631Z,46.54
2023-01-23T00:41:35.700Z,46.77
2023-01-23T00:44:03.821Z,46.74
2023-01-23T00:46:31.865Z,46.57
2023-01-23T00:48:59.862Z,46.84
2023-01-23T00:51:29.348Z,46.91
2023-01-23T00:53:57.664Z,46.98
2023-01-23T00:56:25.612Z,46.96
2023-01-23T00:58:53.554Z,46.88
2023-01-23T01:01:22.878Z,46.71
2023-01-23T01:03:51.360Z,46.99
2023-01-23T01:06:19.325Z,47.09
2023-01-23T01:08:49.127Z,47.03
2023-01-23T01:11:17.076Z,47.32
2023-01-23T01:13:46.822Z,47.12
2023-01-23T01:16:14.847Z,47.05
2023-01-23T01:18:42.995Z,47.12
2023-01-23T01:21:13.224Z,47.36
2023-01-23T01:23:41.952Z,47.43
2023-01-23T01:26:12.518Z,47.23
2023-01-23T01:28:42.260Z,47.50
2023-01-23T01:31:13.152Z,47.43
2023-01-23T01:33:42.072Z,47.57
2023-01-23T01:36:11.487Z,47.50
2023-01-23T01:38:39.805Z,47.50
2023-01-23T01:41:08.411Z,47.25
2023-01-23T01:43:38.187Z,47.40
2023-01-23T01:46:14.115Z,47.38
2023-01-23T01:48:47.094Z,47.66
2023-01-23T01:51:22.655Z,47.34
2023-01-23T01:53:56.389Z,47.65
2023-01-23T01:56:24.837Z,47.62
2023-01-23T01:58:55.497Z,47.71
2023-01-23T02:01:23.520Z,47.49
2023-01-23T02:03:53.098Z,47.49
2023-01-23T02:06:21.866Z,47.54
2023-01-23T02:08:58.229Z,47.77
2023-01-23T02:11:26.192Z,47.53
2023-01-23T02:13:57.288Z,47.86
2023-01-23T02:16:29.675Z,48.05
2023-01-23T02:19:01.891Z,47.84
2023-01-23T02:21:30.590Z,47.92
2023-01-23T02:24:09.438Z,47.79
2023-01-23T02:26:41.758Z,47.92
2023-01-23T02:29:09.842Z,47.91
2023-01-23T02:31:38.357Z,48.05
2023-01-23T02:34:06.718Z,48.10
2023-01-23T02:36:36.404Z,47.86
2023-01-23T02:39:07.947Z,48.19
2023-01-23T02:41:40.165Z,48.24
2023-01-23T02:44:13.864Z,48.21
2023-01-23T02:46:41.944Z,48.39
2023-01-23T02:49:10.338Z,48.84
2023-01-23T02:51:40.852Z,48.39
2023-01-23T02:54:09.476Z,48.42
2023-01-23T02:56:39.027Z,48.37
2023-01-23T02:59:24.266Z,48.42
2023-01-23T03:01:52.249Z,48.16
2023-01-23T03:04:20.709Z,48.12
2023-01-23T03:06:48.841Z,48.21
2023-01-23T03:09:18.352Z,48.22
2023-01-23T03:11:48.287Z,48.47
2023-01-23T03:14:18.604Z,48.46
2023-01-23T03:16:51.341Z,48.49
2023-01-23T03:19:24.420Z,48.54
2023-01-23T03:21:52.872Z,48.47
2023-01-23T03:24:21.603Z,48.71
2023-01-23T03:26:53.619Z,48.55
2023-01-23T03:29:41.692Z,48.71
2023-01-23T03:32:10.920Z,48.69
2023-01-23T03:34:39.705Z,48.68
2023-01-23T03:37:08.377Z,48.73
2023-01-23T03:39:54.046Z,48.75
2023-01-23T03:42:23.736Z,48.77
2023-01-23T03:44:53.599Z,49.01
2023-01-23T03:47:22.091Z,48.84
2023-01-23T03:49:50.204Z,48.63
2023-01-23T03:52:18.222Z,48.49
2023-01-23T03:54:46.240Z,48.87
2023-01-23T03:57:14.520Z,48.90
2023-01-23T03:59:44.344Z,48.77
2023-01-23T04:02:12.334Z,48.71
2023-01-23T04:04:40.569Z,48.80
2023-01-23T04:07:09.153Z,48.66
2023-01-23T04:09:37.168Z,48.51
2023-01-23T04:12:05.544Z,48.81
2023-01-23T04:14:37.648Z,48.65
2023-01-23T04:17:08.331Z,48.81
2023-01-23T04:19:36.667Z,48.72
2023-01-23T04:22:05.995Z,48.85
2023-01-23T04:24:34.003Z,48.83
2023-01-23T04:27:02.163Z,48.92
2023-01-23T04:29:30.239Z,48.52
2023-01-23T04:31:58.264Z,48.91
2023-01-23T04:34:27.714Z,48.85
2023-01-23T04:36:55.628Z,48.46
2023-01-23T04:39:23.783Z,49.00
2023-01-23T04:41:51.922Z,49.02
2023-01-23T04:44:22.960Z,48.99
2023-01-23T04:46:54.325Z,48.85
2023-01-23T04:49:23.344Z,49.04
2023-01-23T04:51:53.670Z,49.24
2023-01-23T04:54:23.231Z,49.03
2023-01-23T04:56:51.319Z,49.08
2023-01-23T04:59:19.419Z,49.12
2023-01-23T05:01:47.803Z,49.10
2023-01-23T05:04:16.039Z,49.14
2023-01-23T05:06:43.995Z,49.12
2023-01-23T05:09:13.885Z,49.17
2023-01-23T05:11:42.192Z,49.15
2023-01-23T05:14:10.241Z,48.94
2023-01-23T05:16:38.542Z,49.00
2023-01-23T05:19:06.630Z,48.89
2023-01-23T05:21:34.643Z,49.00
2023-01-23T05:24:02.816Z,48.81
2023-01-23T05:26:35.164Z,49.02
2023-01-23T05:29:03.495Z,49.18
2023-01-23T05:31:32.836Z,49.13
2023-01-23T05:34:00.985Z,49.14
2023-01-23T05:36:28.978Z,49.22
2023-01-23T05:38:57.184Z,49.20
2023-01-23T05:41:25.780Z,49.21
2023-01-23T05:43:55.391Z,49.32
2023-01-23T05:46:23.416Z,49.47
2023-01-23T05:48:52.172Z,49.34
2023-01-23T05:51:20.540Z,49.40
2023-01-23T05:53:50.097Z,49.36
2023-01-23T05:56:18.090Z,49.43
2023-01-23T05:58:46.121Z,49.15
2023-01-23T06:01:15.534Z,49.22
2023-01-23T06:03:43.724Z,49.23
2023-01-23T06:06:11.714Z,49.35
2023-01-23T06:08:40.201Z,49.23
2023-01-23T06:11:08.170Z,49.17
2023-01-23T06:13:36.310Z,49.30
2023-01-23T06:16:05.655Z,49.30
2023-01-23T06:18:35.449Z,49.05
2023-01-23T06:21:03.640Z,49.33
2023-01-23T06:23:32.808Z,49.27
2023-01-23T06:26:03.686Z,49.31
2023-01-23T06:28:31.881Z,49.38
2023-01-23T06:31:03.977Z,49.67
2023-01-23T06:33:32.437Z,49.45
2023-01-23T06:36:04.674Z,49.52
2023-01-23T06:38:33.048Z,49.57
2023-01-23T06:41:01.238Z,49.52
2023-01-23T06:43:29.534Z,49.97
2023-01-23T06:45:58.002Z,49.84
2023-01-23T06:48:26.062Z,49.66
2023-01-23T06:50:54.217Z,49.94
2023-01-23T06:53:23.598Z,49.77
2023-01-23T06:55:51.703Z,50.06
2023-01-23T06:58:20.147Z,49.85
2023-01-23T07:00:48.582Z,49.96
2023-01-23T07:03:16.941Z,50.14
2023-01-23T07:05:44.899Z,49.87
2023-01-23T07:08:13.156Z,50.05
2023-01-23T07:10:42.519Z,50.10
2023-01-23T07:13:12.841Z,49.98
2023-01-23T07:15:41.235Z,50.28
2023-01-23T07:18:10.557Z,50.14
2023-01-23T07:20:38.760Z,50.23
2023-01-23T07:23:06.945Z,50.08
2023-01-23T07:25:34.925Z,50.28
2023-01-23T07:28:04.436Z,49.97
2023-01-23T07:30:32.913Z,50.36
2023-01-23T07:33:01.405Z,50.14
2023-01-23T07:35:30.010Z,50.39
2023-01-23T07:37:58.173Z,50.15
2023-01-23T07:40:26.482Z,50.23
2023-01-23T07:42:54.423Z,50.32
2023-01-23T07:45:23.694Z,50.04
2023-01-23T07:47:51.754Z,50.38
2023-01-23T07:50:26.927Z,50.51
2023-01-23T07:52:56.894Z,50.34
2023-01-23T07:55:25.049Z,50.25
2023-01-23T07:57:54.119Z,50.31
2023-01-23T08:00:27.190Z,50.51
2023-01-23T08:02:57.541Z,50.36
2023-01-23T08:05:25.855Z,50.49
2023-01-23T08:08:11.445Z,50.31
2023-01-23T08:10:41.246Z,50.21
2023-01-23T08:13:09.475Z,50.57
2023-01-23T08:15:40.006Z,50.63
2023-01-23T08:18:10.692Z,50.38
2023-01-23T08:20:38.954Z,50.40
2023-01-23T08:23:07.205Z,50.29
2023-01-23T08:25:35.272Z,50.38
2023-01-23T08:28:03.344Z,50.21
2023-01-23T08:30:31.833Z,50.35
2023-01-23T08:33:04.773Z,50.45
2023-01-23T08:35:32.659Z,50.26
2023-01-23T08:38:02.620Z,50.45
2023-01-23T08:40:30.901Z,50.40
2023-01-23T08:42:59.015Z,50.58
2023-01-23T08:45:27.175Z,50.50
2023-01-23T08:47:55.420Z,50.35
2023-01-23T08:50:24.920Z,50.68
2023-01-23T08:52:52.863Z,50.76
2023-01-23T08:55:20.839Z,50.65
2023-01-23T08:57:48.676Z,50.73
2023-01-23T09:00:17.432Z,50.74
2023-01-23T09:02:45.526Z,50.58
2023-01-23T09:05:13.617Z,50.76
2023-01-23T09:07:43.342Z,50.86
2023-01-23T09:10:13.661Z,51.03
2023-01-23T09:12:43.055Z,50.89
2023-01-23T09:15:12.059Z,50.87
2023-01-23T09:17:40.353Z,51.13
2023-01-23T09:20:10.451Z,50.89
2023-01-23T09:22:38.634Z,50.80
2023-01-23T09:25:09.188Z,50.86
2023-01-23T09:27:37.521Z,50.65
2023-01-23T09:30:06.416Z,50.76
2023-01-23T09:32:34.801Z,50.82
2023-01-23T09:35:02.934Z,50.33
2023-01-23T09:37:58.475Z,50.77
2023-01-23T09:40:31.095Z,50.20
2023-01-23T09:43:05.444Z,50.60
2023-01-23T09:45:34.608Z,50.48
2023-01-23T09:48:15.674Z,50.04
2023-01-23T09:50:55.240Z,49.91
2023-01-23T09:53:26.765Z,50.05
2023-01-23T09:56:01.410Z,50.00
2023-01-23T09:58:36.900Z,50.17
2023-01-23T10:01:05.104Z,49.83
2023-01-23T10:03:33.886Z,49.71
2023-01-23T10:06:13.762Z,49.81
2023-01-23T10:08:53.810Z,49.42
2023-01-23T10:11:31.069Z,49.29
2023-01-23T10:14:17.306Z,49.35
2023-01-23T10:17:07.627Z,48.85
2023-01-23T10:20:04.570Z,49.01
2023-01-23T10:22:36.335Z,49.24
2023-01-23T10:25:13.774Z,49.17
2023-01-23T10:27:47.805Z,49.00
2023-01-23T10:30:22.370Z,48.87
2023-01-23T10:32:54.213Z,48.57
2023-01-23T10:35:29.979Z,48.87
2023-01-23T10:38:03.124Z,48.30
2023-01-23T10:40:48.340Z,48.23
2023-01-23T10:43:19.591Z,48.74
2023-01-23T10:45:48.936Z,48.47
2023-01-23T10:48:41.436Z,48.50
2023-01-23T10:51:29.272Z,48.70
2023-01-23T10:54:31.707Z,48.48
2023-01-23T10:57:02.530Z,48.78
2023-01-23T10:59:36.014Z,48.65
2023-01-23T11:02:20.981Z,48.66
2023-01-23T11:04:51.863Z,48.84
2023-01-23T11:07:23.293Z,48.83
2023-01-23T11:09:55.334Z,48.71
2023-01-23T11:12:25.466Z,48.64
2023-01-23T11:15:13.864Z,48.48
2023-01-23T11:17:43.616Z,48.44
2023-01-23T11:20:25.932Z,48.49
2023-01-23T11:23:16.042Z,48.15
2023-01-23T11:25:45.350Z,48.10
2023-01-23T11:28:23.771Z,48.01
2023-01-23T11:31:12.472Z,47.87
2023-01-23T11:33:47.887Z,47.76
2023-01-23T11:36:37.587Z,47.60
2023-01-23T11:39:17.007Z,47.50
2023-01-23T11:41:48.581Z,47.56
2023-01-23T11:44:21.025Z,47.47
2023-01-23T11:47:11.442Z,47.36
2023-01-23T11:50:00.607Z,46.89
2023-01-23T11:52:40.486Z,47.37
2023-01-23T11:55:28.258Z,47.09
2023-01-23T11:58:14.446Z,46.93
2023-01-23T12:00:47.865Z,46.89
2023-01-23T12:03:57.643Z,46.93
2023-01-23T12:06:38.646Z,46.86
2023-01-23T12:09:12.505Z,46.40
2023-01-23T12:11:57.165Z,46.68
2023-01-23T12:14:30.741Z,46.45
2023-01-23T12:17:13.723Z,46.31
2023-01-23T12:20:19.103Z,46.34
2023-01-23T12:23:07.283Z,46.17
2023-01-23T12:25:37.266Z,46.00
2023-01-23T12:28:21.062Z,45.59
2023-01-23T12:31:09.086Z,45.82
2023-01-23T12:33:58.805Z,45.58
2023-01-23T12:36:59.460Z,45.09
2023-01-23T12:39:53.576Z,45.31
2023-01-23T12:42:25.271Z,45.26
2023-01-23T12:45:01.234Z,45.17
2023-01-23T12:47:35.646Z,45.19
2023-01-23T12:50:10.478Z,45.13
2023-01-23T12:52:46.145Z,45.04
2023-01-23T12:55:20.511Z,45.20
2023-01-23T12:58:00.115Z,45.38
2023-01-23T13:00:46.371Z,45.29
2023-01-23T13:03:45.000Z,45.08
2023-01-23T13:06:37.437Z,44.98
2023-01-23T13:09:19.852Z,44.80
2023-01-23T13:11:56.776Z,45.29
2023-01-23T13:14:32.831Z,44.77
2023-01-23T13:17:03.861Z,44.76
2023-01-23T13:19:51.308Z,44.76
2023-01-23T13:22:30.482Z,44.73
2023-01-23T13:25:17.711Z,44.71
2023-01-23T13:27:51.256Z,44.73
2023-01-23T13:30:41.426Z,44.85
2023-01-23T13:33:52.843Z,44.91
2023-01-23T13:36:39.550Z,44.83
2023-01-23T13:39:29.160Z,44.93
2023-01-23T13:42:36.966Z,45.03
2023-01-23T13:45:36.832Z,45.02
2023-01-23T14:21:25.646Z,44.80
2023-01-23T14:23:58.250Z,44.80
2023-01-23T14:26:28.963Z,44.71
2023-01-23T14:29:00.510Z,44.75
2023-01-23T14:31:31.798Z,44.72
2023-01-23T14:34:09.786Z,44.34
2023-01-23T14:36:39.524Z,44.63
2023-01-23T14:39:07.628Z,44.51
2023-01-23T14:41:41.587Z,44.66
2023-01-23T14:44:19.538Z,44.34
2023-01-23T14:46:54.065Z,44.64
2023-01-23T14:49:27.781Z,44.54
2023-01-23T14:52:00.881Z,44.88
2023-01-23T14:54:32.892Z,44.78
2023-01-23T14:57:04.591Z,44.43
2023-01-23T14:59:35.908Z,44.77
2023-01-23T15:02:26.677Z,44.74
2023-01-23T15:05:18.383Z,44.68
2023-01-23T15:07:48.811Z,44.98
2023-01-23T15:10:19.236Z,44.67
2023-01-23T15:12:52.831Z,44.68
2023-01-23T15:15:23.671Z,44.67
2023-01-23T15:17:56.797Z,44.77
2023-01-23T15:20:35.536Z,44.90
2023-01-23T15:23:28.323Z,44.88
2023-01-23T15:26:24.664Z,45.01
2023-01-23T15:28:54.222Z,44.99
2023-01-23T15:31:28.091Z,45.10
2023-01-23T15:33:58.979Z,44.96
2023-01-23T15:36:29.840Z,44.90
2023-01-23T15:39:00.260Z,44.76
2023-01-23T15:41:43.908Z,44.86
2023-01-23T15:44:16.469Z,44.94
2023-01-23T15:46:44.473Z,44.89
2023-01-23T15:49:24.874Z,44.69
2023-01-23T15:51:55.739Z,44.59
2023-01-23T15:54:27.356Z,44.58
2023-01-23T15:57:06.527Z,44.43
2023-01-23T15:59:36.509Z,44.44
2023-01-23T16:02:04.966Z,44.49
2023-01-23T16:04:34.706Z,44.50
2023-01-23T16:07:06.647Z,44.54
2023-01-23T16:09:39.132Z,44.56
2023-01-23T16:12:08.544Z,44.64
2023-01-23T16:14:37.337Z,44.50
2023-01-23T16:17:16.494Z,44.71
2023-01-23T16:19:47.233Z,45.14
2023-01-23T16:22:19.261Z,44.75
2023-01-23T16:24:47.412Z,44.97
2023-01-23T16:27:19.061Z,45.07
2023-01-23T16:29:49.593Z,44.92
2023-01-23T16:32:17.974Z,45.16
2023-01-23T16:34:47.693Z,45.12
2023-01-23T16:37:17.931Z,45.13
2023-01-23T16:39:47.871Z,45.50
2023-01-23T16:42:22.829Z,45.37
2023-01-23T16:44:51.392Z,45.49
2023-01-23T16:47:19.561Z,45.48
2023-01-23T16:49:53.719Z,45.57
2023-01-23T16:52:26.436Z,46.00
2023-01-23T16:54:55.787Z,46.17
2023-01-23T16:57:25.155Z,46.08
2023-01-23T16:59:56.415Z,46.27
2023-01-23T17:02:28.861Z,46.33
2023-01-23T17:04:58.522Z,46.57
2023-01-23T17:07:26.462Z,46.34
2023-01-23T17:09:54.370Z,46.88
2023-01-23T17:12:27.802Z,46.80
2023-01-23T17:14:57.307Z,46.37
2023-01-23T17:17:30.519Z,46.91
2023-01-23T17:20:01.453Z,46.82
2023-01-23T17:22:31.531Z,47.55
2023-01-23T17:24:59.807Z,47.08
2023-01-23T17:27:27.970Z,47.16
2023-01-23T17:29:56.019Z,47.06
2023-01-23T17:32:30.598Z,47.33
2023-01-23T17:35:03.175Z,47.31
2023-01-23T17:37:31.829Z,47.52
2023-01-23T17:39:59.867Z,47.68
2023-01-23T17:42:28.119Z,47.98
2023-01-23T17:44:56.566Z,47.97
2023-01-23T17:47:25.658Z,47.71
2023-01-23T17:49:55.510Z,47.96
2023-01-23T17:52:26.734Z,48.00
2023-01-23T17:54:54.861Z,48.32
2023-01-23T17:57:23.199Z,48.50
2023-01-23T17:59:51.060Z,48.50
2023-01-23T18:02:28.174Z,48.40
2023-01-23T18:04:56.676Z,48.63
2023-01-23T18:07:48.651Z,48.45
2023-01-23T18:10:22.379Z,48.58
2023-01-23T18:13:00.358Z,48.80
2023-01-23T18:15:37.714Z,48.84
2023-01-23T18:18:22.819Z,48.57
2023-01-23T18:20:54.976Z,48.91
2023-01-23T18:23:26.400Z,48.96
2023-01-23T18:26:03.433Z,49.26
2023-01-23T18:28:41.007Z,49.15
2023-01-23T18:31:14.909Z,49.33
2023-01-23T18:33:54.466Z,49.04
2023-01-23T18:36:37.486Z,49.21
2023-01-23T18:39:37.229Z,49.20
2023-01-23T18:42:16.757Z,49.31
2023-01-23T18:44:52.489Z,49.36
2023-01-23T18:47:20.775Z,49.23
2023-01-23T18:49:49.189Z,49.53
2023-01-23T18:52:23.015Z,49.52
2023-01-23T18:55:02.679Z,49.51
2023-01-23T18:57:57.130Z,49.76
2023-01-23T19:00:31.970Z,49.76
2023-01-23T19:03:09.945Z,49.70
2023-01-23T19:05:38.577Z,49.48
2023-01-23T19:08:07.283Z,49.67
2023-01-23T19:10:48.618Z,49.49
2023-01-23T19:13:21.591Z,49.81
2023-01-23T19:16:03.027Z,49.54
2023-01-23T19:18:45.739Z,49.64
2023-01-23T19:21:20.931Z,49.76
2023-01-23T19:23:57.111Z,49.71
2023-01-23T19:26:29.800Z,49.81
2023-01-23T19:28:59.831Z,49.76
2023-01-23T19:31:32.246Z,49.46
2023-01-23T19:34:01.782Z,49.85
2023-01-23T19:36:32.301Z,50.14
2023-01-23T19:39:03.093Z,50.14
2023-01-23T19:41:40.276Z,50.16
2023-01-23T19:44:10.231Z,49.86
2023-01-23T19:46:38.377Z,49.94
2023-01-23T19:49:08.044Z,49.98
2023-01-23T19:51:36.560Z,50.19
2023-01-23T19:54:09.442Z,50.06
2023-01-23T19:56:39.487Z,50.20
2023-01-23T19:59:07.763Z,50.01
2023-01-23T20:01:40.339Z,50.24
2023-01-23T20:04:09.446Z,50.08
2023-01-23T20:06:40.508Z,50.47
2023-01-23T20:09:08.545Z,50.33
2023-01-23T20:11:36.606Z,50.34
2023-01-23T20:14:06.057Z,50.39
2023-01-23T20:16:34.125Z,50.47
2023-01-23T20:19:02.245Z,50.53
2023-01-23T20:21:30.273Z,50.39
2023-01-23T20:23:58.299Z,50.51
2023-01-23T20:26:26.335Z,50.63
2023-01-23T20:28:54.561Z,50.56
2023-01-23T20:31:24.278Z,50.53
2023-01-23T20:33:52.528Z,50.71
2023-01-23T20:36:20.608Z,50.45
2023-01-23T20:38:48.524Z,50.62
2023-01-23T20:41:18.774Z,50.76
2023-01-23T20:43:47.668Z,50.65
2023-01-23T20:46:19.077Z,50.75
2023-01-23T20:48:48.734Z,50.65
2023-01-23T20:51:17.773Z,50.69
2023-01-23T20:53:46.627Z,51.02
2023-01-23T20:56:16.642Z,51.17
2023-01-23T20:59:04.447Z,50.88
2023-01-23T21:01:54.666Z,50.61
2023-01-23T21:04:26.023Z,51.00
2023-01-23T21:06:54.072Z,50.82
2023-01-23T21:09:23.251Z,50.90
2023-01-23T21:11:52.367Z,50.91
2023-01-23T21:14:21.457Z,50.75
2023-01-23T21:16:49.632Z,51.05
2023-01-23T21:19:18.021Z,50.88
2023-01-23T21:21:47.654Z,51.18
2023-01-23T21:24:16.279Z,51.16
2023-01-23T21:26:45.027Z,50.96
2023-01-23T21:29:13.004Z,51.25
2023-01-23T21:31:41.365Z,51.00
2023-01-23T21:34:11.553Z,51.01
2023-01-23T21:36:40.465Z,51.12
2023-01-23T21:39:11.627Z,51.36
2023-01-23T21:41:40.111Z,51.06
2023-01-23T21:44:08.342Z,51.30
2023-01-23T21:46:36.362Z,51.02
2023-01-23T21:49:04.611Z,51.14
2023-01-23T21:51:32.867Z,51.37
2023-01-23T21:54:00.951Z,51.29
2023-01-23T21:56:30.547Z,51.18
2023-01-23T21:58:59.120Z,51.14
2023-01-23T22:01:32.802Z,51.22
2023-01-23T22:04:01.969Z,51.27
2023-01-23T22:06:30.614Z,51.29
2023-01-23T22:09:00.319Z,51.35
2023-01-23T22:11:28.542Z,51.24
2023-01-23T22:13:58.428Z,51.08
2023-01-23T22:16:46.434Z,51.50
2023-01-23T22:19:16.426Z,51.42
2023-01-23T22:21:46.920Z,51.16
2023-01-23T22:24:15.551Z,51.52
2023-01-23T22:26:43.946Z,51.56
2023-01-23T22:29:14.052Z,51.58
2023-01-23T22:31:42.717Z,51.06
2023-01-23T22:34:11.632Z,51.38
2023-01-23T22:36:39.625Z,51.35
2023-01-23T22:39:08.108Z,51.38
2023-01-23T22:41:36.335Z,51.52
2023-01-23T22:44:04.710Z,51.46
2023-01-23T22:46:34.104Z,51.27
2023-01-23T22:49:02.128Z,51.55
2023-01-23T22:51:30.236Z,51.51
2023-01-23T22:53:59.460Z,51.38
2023-01-23T22:56:28.814Z,51.38
2023-01-23T22:58:57.930Z,51.48
2023-01-23T23:01:28.660Z,51.61
2023-01-23T23:04:00.531Z,51.59
2023-01-23T23:06:29.096Z,51.69
2023-01-23T23:08:58.103Z,51.22
2023-01-23T23:11:27.929Z,51.44
2023-01-23T23:13:58.123Z,51.55
2023-01-23T23:16:28.129Z,51.31
2023-01-23T23:18:59.075Z,51.63
2023-01-23T23:21:30.416Z,51.70
2023-01-23T23:23:59.819Z,51.76
2023-01-23T23:26:30.092Z,51.53
2023-01-23T23:28:58.819Z,51.57
2023-01-23T23:31:27.011Z,51.45
2023-01-23T23:33:55.441Z,51.65
2023-01-23T23:36:24.943Z,51.68
2023-01-23T23:38:53.198Z,51.24
2023-01-23T23:41:23.751Z,51.23
2023-01-23T23:43:52.077Z,51.96
2023-01-23T23:46:20.674Z,51.42
2023-01-23T23:48:48.714Z,51.82
2023-01-23T23:51:19.763Z,51.55
2023-01-23T23:53:49.580Z,51.53
2023-01-23T23:56:21.962Z,51.33
2023-01-23T23:58:50.042Z,51.42
